sensor_id;sensor_type;location;lat;lon;timestamp;temperature;humidity
47022;DHT22;32779;52.264;6.154;2023-03-11T00:00:23;0.50;99.90
47022;DHT22;32779;52.264;6.154;2023-03-11T00:02:51;0.50;99.90
47022;DHT22;32779;52.264;6.154;2023-03-11T00:05:20;0.50;99.90
47022;DHT22;32779;52.264;6.154;2023-03-11T00:07:47;0.50;99.90
47022;DHT22;32779;52.264;6.154;2023-03-11T00:10:20;0.50;99.90
47022;DHT22;32779;52.264;6.154;2023-03-11T00:12:46;0.50;99.90
47022;DHT22;32779;52.264;6.154;2023-03-11T00:15:13;0.50;99.90
47022;DHT22;32779;52.264;6.154;2023-03-11T00:17:39;0.50;99.90
47022;DHT22;32779;52.264;6.154;2023-03-11T00:20:05;0.40;99.90
47022;DHT22;32779;52.264;6.154;2023-03-11T00:22:32;0.40;99.90
47022;DHT22;32779;52.264;6.154;2023-03-11T00:24:58;0.40;99.90
47022;DHT22;32779;52.264;6.154;2023-03-11T00:27:23;0.40;99.90
47022;DHT22;32779;52.264;6.154;2023-03-11T00:29:49;0.40;99.90
47022;DHT22;32779;52.264;6.154;2023-03-11T00:32:15;0.40;99.90
47022;DHT22;32779;52.264;6.154;2023-03-11T00:34:41;0.40;99.90
47022;DHT22;32779;52.264;6.154;2023-03-11T00:37:07;0.40;99.90
47022;DHT22;32779;52.264;6.154;2023-03-11T00:39:33;0.40;99.90
47022;DHT22;32779;52.264;6.154;2023-03-11T00:41:59;0.30;99.90
47022;DHT22;32779;52.264;6.154;2023-03-11T00:44:25;0.30;99.90
47022;DHT22;32779;52.264;6.154;2023-03-11T00:46:50;0.30;99.90
47022;DHT22;32779;52.264;6.154;2023-03-11T00:49:16;0.30;99.90
47022;DHT22;32779;52.264;6.154;2023-03-11T00:51:42;0.30;99.90
47022;DHT22;32779;52.264;6.154;2023-03-11T00:54:09;0.30;99.90
47022;DHT22;32779;52.264;6.154;2023-03-11T00:56:34;0.30;99.90
47022;DHT22;32779;52.264;6.154;2023-03-11T00:59:00;0.30;99.90
47022;DHT22;32779;52.264;6.154;2023-03-11T01:01:25;0.30;99.90
47022;DHT22;32779;52.264;6.154;2023-03-11T01:03:51;0.30;99.90
47022;DHT22;32779;52.264;6.154;2023-03-11T01:06:17;0.40;99.90
47022;DHT22;32779;52.264;6.154;2023-03-11T01:08:42;0.40;99.90
47022;DHT22;32779;52.264;6.154;2023-03-11T01:11:08;0.40;99.90
47022;DHT22;32779;52.264;6.154;2023-03-11T01:13:34;0.30;99.90
47022;DHT22;32779;52.264;6.154;2023-03-11T01:16:00;0.30;99.90
47022;DHT22;32779;52.264;6.154;2023-03-11T01:18:25;0.30;99.90
47022;DHT22;32779;52.264;6.154;2023-03-11T01:20:52;0.20;99.90
47022;DHT22;32779;52.264;6.154;2023-03-11T01:23:18;0.20;99.90
47022;DHT22;32779;52.264;6.154;2023-03-11T01:25:44;0.20;99.90
47022;DHT22;32779;52.264;6.154;2023-03-11T01:28:10;0.20;99.90
47022;DHT22;32779;52.264;6.154;2023-03-11T01:30:38;0.30;99.90
47022;DHT22;32779;52.264;6.154;2023-03-11T01:33:04;0.30;99.90
47022;DHT22;32779;52.264;6.154;2023-03-11T01:35:30;0.30;99.90
47022;DHT22;32779;52.264;6.154;2023-03-11T01:37:57;0.30;99.90
47022;DHT22;32779;52.264;6.154;2023-03-11T01:40:34;0.40;99.90
47022;DHT22;32779;52.264;6.154;2023-03-11T01:43:01;0.40;99.90
47022;DHT22;32779;52.264;6.154;2023-03-11T01:48:05;0.40;99.90
47022;DHT22;32779;52.264;6.154;2023-03-11T01:50:39;0.30;99.90
47022;DHT22;32779;52.264;6.154;2023-03-11T01:53:05;0.30;99.90
47022;DHT22;32779;52.264;6.154;2023-03-11T01:55:32;0.30;99.90
47022;DHT22;32779;52.264;6.154;2023-03-11T01:58:00;0.30;99.90
47022;DHT22;32779;52.264;6.154;2023-03-11T02:00:27;0.30;99.90
47022;DHT22;32779;52.264;6.154;2023-03-11T02:02:56;0.30;99.90
47022;DHT22;32779;52.264;6.154;2023-03-11T02:05:23;0.20;99.90
47022;DHT22;32779;52.264;6.154;2023-03-11T02:07:50;0.30;99.90
47022;DHT22;32779;52.264;6.154;2023-03-11T02:10:17;0.30;99.90
47022;DHT22;32779;52.264;6.154;2023-03-11T02:12:45;0.30;99.90
47022;DHT22;32779;52.264;6.154;2023-03-11T02:15:11;0.20;99.90
47022;DHT22;32779;52.264;6.154;2023-03-11T02:17:39;0.20;99.90
47022;DHT22;32779;52.264;6.154;2023-03-11T02:22:44;0.10;99.90
47022;DHT22;32779;52.264;6.154;2023-03-11T02:25:23;0.10;99.90
47022;DHT22;32779;52.264;6.154;2023-03-11T02:27:52;0.10;99.90
47022;DHT22;32779;52.264;6.154;2023-03-11T02:30:21;0.10;99.90
47022;DHT22;32779;52.264;6.154;2023-03-11T02:32:47;0.10;99.90
47022;DHT22;32779;52.264;6.154;2023-03-11T02:35:14;0.20;99.90
47022;DHT22;32779;52.264;6.154;2023-03-11T02:37:47;0.20;99.90
47022;DHT22;32779;52.264;6.154;2023-03-11T02:43:09;0.20;99.90
47022;DHT22;32779;52.264;6.154;2023-03-11T02:45:37;0.10;99.90
47022;DHT22;32779;52.264;6.154;2023-03-11T02:48:04;0.20;99.90
47022;DHT22;32779;52.264;6.154;2023-03-11T02:50:31;0.20;99.90
47022;DHT22;32779;52.264;6.154;2023-03-11T02:52:58;0.10;99.90
47022;DHT22;32779;52.264;6.154;2023-03-11T02:55:24;0.10;99.90
47022;DHT22;32779;52.264;6.154;2023-03-11T02:57:49;0.10;99.90
47022;DHT22;32779;52.264;6.154;2023-03-11T03:00:16;0.00;99.90
47022;DHT22;32779;52.264;6.154;2023-03-11T03:02:43;0.00;99.90
47022;DHT22;32779;52.264;6.154;2023-03-11T03:05:10;0.00;99.90
47022;DHT22;32779;52.264;6.154;2023-03-11T03:07:36;-0.10;99.90
47022;DHT22;32779;52.264;6.154;2023-03-11T03:10:04;-0.10;99.90
47022;DHT22;32779;52.264;6.154;2023-03-11T03:12:30;-0.10;99.90
47022;DHT22;32779;52.264;6.154;2023-03-11T03:14:55;-0.20;99.90
47022;DHT22;32779;52.264;6.154;2023-03-11T03:17:23;-0.10;99.90
47022;DHT22;32779;52.264;6.154;2023-03-11T03:19:48;-0.20;99.90
47022;DHT22;32779;52.264;6.154;2023-03-11T03:22:14;-0.20;99.90
47022;DHT22;32779;52.264;6.154;2023-03-11T03:24:39;-0.10;99.90
47022;DHT22;32779;52.264;6.154;2023-03-11T03:27:05;-0.10;99.90
47022;DHT22;32779;52.264;6.154;2023-03-11T03:29:31;-0.10;99.90
47022;DHT22;32779;52.264;6.154;2023-03-11T03:31:56;-0.20;99.90
47022;DHT22;32779;52.264;6.154;2023-03-11T03:34:22;-0.20;99.90
47022;DHT22;32779;52.264;6.154;2023-03-11T03:36:48;-0.20;99.90
47022;DHT22;32779;52.264;6.154;2023-03-11T03:39:14;-0.30;99.90
47022;DHT22;32779;52.264;6.154;2023-03-11T03:41:40;-0.30;99.90
47022;DHT22;32779;52.264;6.154;2023-03-11T03:44:05;-0.40;99.90
47022;DHT22;32779;52.264;6.154;2023-03-11T03:46:31;-0.40;99.90
47022;DHT22;32779;52.264;6.154;2023-03-11T03:48:56;-0.40;99.90
47022;DHT22;32779;52.264;6.154;2023-03-11T03:51:22;-0.40;99.90
47022;DHT22;32779;52.264;6.154;2023-03-11T03:53:48;-0.40;99.90
47022;DHT22;32779;52.264;6.154;2023-03-11T03:56:16;-0.40;99.90
47022;DHT22;32779;52.264;6.154;2023-03-11T03:58:42;-0.40;99.90
47022;DHT22;32779;52.264;6.154;2023-03-11T04:01:08;-0.40;99.90
47022;DHT22;32779;52.264;6.154;2023-03-11T04:03:34;-0.50;99.90
47022;DHT22;32779;52.264;6.154;2023-03-11T04:06:20;-0.50;99.90
47022;DHT22;32779;52.264;6.154;2023-03-11T04:08:46;-0.50;99.90
47022;DHT22;32779;52.264;6.154;2023-03-11T04:11:12;-0.50;99.90
47022;DHT22;32779;52.264;6.154;2023-03-11T04:13:38;-0.50;99.90
47022;DHT22;32779;52.264;6.154;2023-03-11T04:16:07;-0.40;99.90
47022;DHT22;32779;52.264;6.154;2023-03-11T04:18:33;-0.50;99.90
47022;DHT22;32779;52.264;6.154;2023-03-11T04:20:59;-0.50;99.90
47022;DHT22;32779;52.264;6.154;2023-03-11T04:23:25;-0.60;99.90
47022;DHT22;32779;52.264;6.154;2023-03-11T04:25:50;-0.60;99.90
47022;DHT22;32779;52.264;6.154;2023-03-11T04:28:16;-0.60;99.90
47022;DHT22;32779;52.264;6.154;2023-03-11T04:30:41;-0.70;99.90
47022;DHT22;32779;52.264;6.154;2023-03-11T04:33:07;-0.70;99.90
47022;DHT22;32779;52.264;6.154;2023-03-11T04:35:32;-0.70;99.90
47022;DHT22;32779;52.264;6.154;2023-03-11T04:37:59;-0.70;99.90
47022;DHT22;32779;52.264;6.154;2023-03-11T04:40:25;-0.70;99.90
47022;DHT22;32779;52.264;6.154;2023-03-11T04:42:52;-0.80;99.90
47022;DHT22;32779;52.264;6.154;2023-03-11T04:45:18;-0.80;99.90
47022;DHT22;32779;52.264;6.154;2023-03-11T04:47:47;-0.90;99.90
47022;DHT22;32779;52.264;6.154;2023-03-11T04:50:13;-0.90;99.90
47022;DHT22;32779;52.264;6.154;2023-03-11T04:52:38;-0.90;99.90
47022;DHT22;32779;52.264;6.154;2023-03-11T04:55:04;-0.90;99.90
47022;DHT22;32779;52.264;6.154;2023-03-11T04:57:30;-1.00;99.90
47022;DHT22;32779;52.264;6.154;2023-03-11T04:59:55;-0.90;99.90
47022;DHT22;32779;52.264;6.154;2023-03-11T05:02:21;-1.00;99.90
47022;DHT22;32779;52.264;6.154;2023-03-11T05:04:47;-0.90;99.90
47022;DHT22;32779;52.264;6.154;2023-03-11T05:07:12;-1.00;99.90
47022;DHT22;32779;52.264;6.154;2023-03-11T05:09:38;-1.00;99.90
47022;DHT22;32779;52.264;6.154;2023-03-11T05:12:04;-1.00;99.90
47022;DHT22;32779;52.264;6.154;2023-03-11T05:14:30;-1.10;99.90
47022;DHT22;32779;52.264;6.154;2023-03-11T05:16:56;-1.10;99.90
47022;DHT22;32779;52.264;6.154;2023-03-11T05:19:21;-1.10;99.90
47022;DHT22;32779;52.264;6.154;2023-03-11T05:22:02;-1.10;99.90
47022;DHT22;32779;52.264;6.154;2023-03-11T05:24:28;-1.10;99.90
47022;DHT22;32779;52.264;6.154;2023-03-11T05:26:54;-1.10;99.90
47022;DHT22;32779;52.264;6.154;2023-03-11T05:29:20;-1.10;99.90
47022;DHT22;32779;52.264;6.154;2023-03-11T05:31:46;-1.10;99.90
47022;DHT22;32779;52.264;6.154;2023-03-11T05:34:12;-1.20;99.90
47022;DHT22;32779;52.264;6.154;2023-03-11T05:36:38;-1.20;99.90
47022;DHT22;32779;52.264;6.154;2023-03-11T05:39:03;-1.30;99.90
47022;DHT22;32779;52.264;6.154;2023-03-11T05:41:30;-1.30;99.90
47022;DHT22;32779;52.264;6.154;2023-03-11T05:43:55;-1.30;99.90
47022;DHT22;32779;52.264;6.154;2023-03-11T05:46:21;-1.40;99.90
47022;DHT22;32779;52.264;6.154;2023-03-11T05:48:47;-1.40;99.90
47022;DHT22;32779;52.264;6.154;2023-03-11T05:51:13;-1.50;99.90
47022;DHT22;32779;52.264;6.154;2023-03-11T05:53:42;-1.50;99.90
47022;DHT22;32779;52.264;6.154;2023-03-11T05:56:13;-1.50;99.90
47022;DHT22;32779;52.264;6.154;2023-03-11T05:58:39;-1.60;99.90
47022;DHT22;32779;52.264;6.154;2023-03-11T06:01:13;-1.60;99.90
47022;DHT22;32779;52.264;6.154;2023-03-11T06:03:39;-1.60;99.90
47022;DHT22;32779;52.264;6.154;2023-03-11T06:06:10;-1.60;99.90
47022;DHT22;32779;52.264;6.154;2023-03-11T06:08:36;-1.60;99.90
47022;DHT22;32779;52.264;6.154;2023-03-11T06:11:04;-1.60;99.90
47022;DHT22;32779;52.264;6.154;2023-03-11T06:13:30;-1.60;99.90
47022;DHT22;32779;52.264;6.154;2023-03-11T06:15:56;-1.70;99.90
47022;DHT22;32779;52.264;6.154;2023-03-11T06:18:22;-1.60;99.90
47022;DHT22;32779;52.264;6.154;2023-03-11T06:20:47;-1.60;99.90
47022;DHT22;32779;52.264;6.154;2023-03-11T06:23:13;-1.60;99.90
47022;DHT22;32779;52.264;6.154;2023-03-11T06:25:39;-1.60;99.90
47022;DHT22;32779;52.264;6.154;2023-03-11T06:28:04;-1.60;99.90
47022;DHT22;32779;52.264;6.154;2023-03-11T06:30:30;-1.60;99.90
47022;DHT22;32779;52.264;6.154;2023-03-11T06:32:55;-1.60;99.90
47022;DHT22;32779;52.264;6.154;2023-03-11T06:35:21;-1.50;99.90
47022;DHT22;32779;52.264;6.154;2023-03-11T06:37:47;-1.50;99.90
47022;DHT22;32779;52.264;6.154;2023-03-11T06:40:12;-1.50;99.90
47022;DHT22;32779;52.264;6.154;2023-03-11T06:42:38;-1.50;99.90
47022;DHT22;32779;52.264;6.154;2023-03-11T06:45:04;-1.40;99.90
47022;DHT22;32779;52.264;6.154;2023-03-11T06:47:30;-1.40;99.90
47022;DHT22;32779;52.264;6.154;2023-03-11T06:49:56;-1.30;99.90
47022;DHT22;32779;52.264;6.154;2023-03-11T06:52:22;-1.10;99.90
47022;DHT22;32779;52.264;6.154;2023-03-11T06:54:48;-0.90;99.90
47022;DHT22;32779;52.264;6.154;2023-03-11T06:57:15;-0.60;99.90
47022;DHT22;32779;52.264;6.154;2023-03-11T06:59:41;-0.20;99.90
47022;DHT22;32779;52.264;6.154;2023-03-11T07:02:09;0.10;99.90
47022;DHT22;32779;52.264;6.154;2023-03-11T07:04:36;0.30;99.90
47022;DHT22;32779;52.264;6.154;2023-03-11T07:07:02;0.70;99.90
47022;DHT22;32779;52.264;6.154;2023-03-11T07:09:27;0.90;99.90
47022;DHT22;32779;52.264;6.154;2023-03-11T07:11:53;1.10;99.90
47022;DHT22;32779;52.264;6.154;2023-03-11T07:14:20;1.20;99.90
47022;DHT22;32779;52.264;6.154;2023-03-11T07:16:45;1.40;99.90
47022;DHT22;32779;52.264;6.154;2023-03-11T07:19:12;1.40;99.90
47022;DHT22;32779;52.264;6.154;2023-03-11T07:21:38;1.40;99.90
47022;DHT22;32779;52.264;6.154;2023-03-11T07:24:04;1.30;99.90
47022;DHT22;32779;52.264;6.154;2023-03-11T07:26:31;1.30;99.90
47022;DHT22;32779;52.264;6.154;2023-03-11T07:28:57;1.30;99.90
47022;DHT22;32779;52.264;6.154;2023-03-11T07:31:31;1.20;99.90
47022;DHT22;32779;52.264;6.154;2023-03-11T07:33:59;1.20;99.90
47022;DHT22;32779;52.264;6.154;2023-03-11T07:36:25;1.20;99.90
47022;DHT22;32779;52.264;6.154;2023-03-11T07:39:13;1.20;99.90
47022;DHT22;32779;52.264;6.154;2023-03-11T07:41:38;1.20;99.90
47022;DHT22;32779;52.264;6.154;2023-03-11T07:44:04;1.20;99.90
47022;DHT22;32779;52.264;6.154;2023-03-11T07:46:31;1.30;99.90
47022;DHT22;32779;52.264;6.154;2023-03-11T07:48:57;1.30;99.90
47022;DHT22;32779;52.264;6.154;2023-03-11T07:51:25;1.40;99.90
47022;DHT22;32779;52.264;6.154;2023-03-11T07:53:53;1.40;99.90
47022;DHT22;32779;52.264;6.154;2023-03-11T07:56:19;1.50;99.90
47022;DHT22;32779;52.264;6.154;2023-03-11T07:58:45;1.60;99.90
47022;DHT22;32779;52.264;6.154;2023-03-11T08:01:14;1.70;99.90
47022;DHT22;32779;52.264;6.154;2023-03-11T08:03:44;1.80;99.90
47022;DHT22;32779;52.264;6.154;2023-03-11T08:06:15;1.90;99.90
47022;DHT22;32779;52.264;6.154;2023-03-11T08:08:42;2.00;99.90
47022;DHT22;32779;52.264;6.154;2023-03-11T08:11:08;2.10;99.90
47022;DHT22;32779;52.264;6.154;2023-03-11T08:13:33;2.20;99.90
47022;DHT22;32779;52.264;6.154;2023-03-11T08:16:03;2.30;99.90
47022;DHT22;32779;52.264;6.154;2023-03-11T08:18:29;2.40;99.90
47022;DHT22;32779;52.264;6.154;2023-03-11T08:20:55;2.50;99.90
47022;DHT22;32779;52.264;6.154;2023-03-11T08:23:21;2.50;99.90
47022;DHT22;32779;52.264;6.154;2023-03-11T08:25:46;2.50;99.90
47022;DHT22;32779;52.264;6.154;2023-03-11T08:28:12;2.60;99.90
47022;DHT22;32779;52.264;6.154;2023-03-11T08:30:38;2.60;99.90
47022;DHT22;32779;52.264;6.154;2023-03-11T08:33:03;2.60;99.90
47022;DHT22;32779;52.264;6.154;2023-03-11T08:35:29;2.60;99.90
47022;DHT22;32779;52.264;6.154;2023-03-11T08:37:55;2.60;99.90
47022;DHT22;32779;52.264;6.154;2023-03-11T08:40:21;2.60;99.90
47022;DHT22;32779;52.264;6.154;2023-03-11T08:42:46;2.60;99.90
47022;DHT22;32779;52.264;6.154;2023-03-11T08:45:12;2.70;99.90
47022;DHT22;32779;52.264;6.154;2023-03-11T08:47:38;2.70;99.90
47022;DHT22;32779;52.264;6.154;2023-03-11T08:50:07;2.70;99.90
47022;DHT22;32779;52.264;6.154;2023-03-11T08:52:34;2.80;99.90
47022;DHT22;32779;52.264;6.154;2023-03-11T08:55:00;2.80;99.90
47022;DHT22;32779;52.264;6.154;2023-03-11T08:57:25;2.70;99.90
47022;DHT22;32779;52.264;6.154;2023-03-11T08:59:51;2.70;99.90
47022;DHT22;32779;52.264;6.154;2023-03-11T09:02:16;2.80;99.90
47022;DHT22;32779;52.264;6.154;2023-03-11T09:04:42;2.80;99.90
47022;DHT22;32779;52.264;6.154;2023-03-11T09:07:10;2.70;99.90
47022;DHT22;32779;52.264;6.154;2023-03-11T09:09:35;2.80;99.90
47022;DHT22;32779;52.264;6.154;2023-03-11T09:12:01;2.70;99.90
47022;DHT22;32779;52.264;6.154;2023-03-11T09:14:27;2.80;99.90
47022;DHT22;32779;52.264;6.154;2023-03-11T09:16:52;2.80;99.90
47022;DHT22;32779;52.264;6.154;2023-03-11T09:19:18;2.80;99.90
47022;DHT22;32779;52.264;6.154;2023-03-11T09:21:43;2.80;99.90
47022;DHT22;32779;52.264;6.154;2023-03-11T09:24:09;2.80;99.90
47022;DHT22;32779;52.264;6.154;2023-03-11T09:26:34;2.80;99.90
47022;DHT22;32779;52.264;6.154;2023-03-11T09:29:00;2.80;99.90
47022;DHT22;32779;52.264;6.154;2023-03-11T09:31:26;2.80;99.90
47022;DHT22;32779;52.264;6.154;2023-03-11T09:33:51;2.80;99.90
47022;DHT22;32779;52.264;6.154;2023-03-11T09:36:20;2.80;99.90
47022;DHT22;32779;52.264;6.154;2023-03-11T09:38:46;2.80;99.90
47022;DHT22;32779;52.264;6.154;2023-03-11T09:41:33;2.90;99.90
47022;DHT22;32779;52.264;6.154;2023-03-11T09:54:36;2.90;99.90
47022;DHT22;32779;52.264;6.154;2023-03-11T09:57:03;3.00;99.90
47022;DHT22;32779;52.264;6.154;2023-03-11T09:59:31;3.10;99.90
47022;DHT22;32779;52.264;6.154;2023-03-11T10:01:58;3.10;99.90
47022;DHT22;32779;52.264;6.154;2023-03-11T10:07:35;3.10;99.90
47022;DHT22;32779;52.264;6.154;2023-03-11T10:10:04;3.10;99.90
47022;DHT22;32779;52.264;6.154;2023-03-11T10:20:57;3.20;99.90
47022;DHT22;32779;52.264;6.154;2023-03-11T10:23:55;3.30;99.90
47022;DHT22;32779;52.264;6.154;2023-03-11T10:26:36;3.30;99.90
47022;DHT22;32779;52.264;6.154;2023-03-11T10:31:38;3.40;99.90
47022;DHT22;32779;52.264;6.154;2023-03-11T10:34:13;3.40;99.90
47022;DHT22;32779;52.264;6.154;2023-03-11T10:36:56;3.50;99.90
47022;DHT22;32779;52.264;6.154;2023-03-11T10:39:23;3.60;99.90
47022;DHT22;32779;52.264;6.154;2023-03-11T10:42:00;3.60;99.90
47022;DHT22;32779;52.264;6.154;2023-03-11T10:44:41;3.70;99.90
47022;DHT22;32779;52.264;6.154;2023-03-11T10:47:16;3.80;99.90
47022;DHT22;32779;52.264;6.154;2023-03-11T10:49:42;3.90;99.90
47022;DHT22;32779;52.264;6.154;2023-03-11T10:52:08;3.90;99.90
47022;DHT22;32779;52.264;6.154;2023-03-11T10:54:37;4.00;99.90
47022;DHT22;32779;52.264;6.154;2023-03-11T10:57:25;4.00;99.90
47022;DHT22;32779;52.264;6.154;2023-03-11T10:59:58;4.00;99.90
47022;DHT22;32779;52.264;6.154;2023-03-11T11:07:33;4.00;99.90
47022;DHT22;32779;52.264;6.154;2023-03-11T11:10:14;4.10;99.90
47022;DHT22;32779;52.264;6.154;2023-03-11T11:12:56;4.10;99.90
47022;DHT22;32779;52.264;6.154;2023-03-11T11:17:52;4.10;99.90
47022;DHT22;32779;52.264;6.154;2023-03-11T11:20:21;4.10;99.90
47022;DHT22;32779;52.264;6.154;2023-03-11T11:22:58;4.10;99.90
47022;DHT22;32779;52.264;6.154;2023-03-11T11:25:39;4.10;99.90
47022;DHT22;32779;52.264;6.154;2023-03-11T11:28:18;4.20;99.90
47022;DHT22;32779;52.264;6.154;2023-03-11T11:31:24;4.20;99.90
47022;DHT22;32779;52.264;6.154;2023-03-11T11:33:54;4.20;99.90
47022;DHT22;32779;52.264;6.154;2023-03-11T11:36:29;4.20;99.90
47022;DHT22;32779;52.264;6.154;2023-03-11T11:38:58;4.20;99.90
47022;DHT22;32779;52.264;6.154;2023-03-11T11:41:26;4.30;99.90
47022;DHT22;32779;52.264;6.154;2023-03-11T11:43:55;4.20;99.90
47022;DHT22;32779;52.264;6.154;2023-03-11T11:49:10;4.20;99.90
47022;DHT22;32779;52.264;6.154;2023-03-11T11:51:53;4.10;99.90
47022;DHT22;32779;52.264;6.154;2023-03-11T11:54:33;4.10;99.90
47022;DHT22;32779;52.264;6.154;2023-03-11T11:57:09;4.20;99.90
47022;DHT22;32779;52.264;6.154;2023-03-11T11:59:35;4.20;99.90
47022;DHT22;32779;52.264;6.154;2023-03-11T12:04:56;4.10;99.90
47022;DHT22;32779;52.264;6.154;2023-03-11T12:10:22;4.10;99.90
47022;DHT22;32779;52.264;6.154;2023-03-11T12:15:45;4.00;99.90
47022;DHT22;32779;52.264;6.154;2023-03-11T12:18:27;4.00;99.90
47022;DHT22;32779;52.264;6.154;2023-03-11T12:20:54;4.00;99.90
47022;DHT22;32779;52.264;6.154;2023-03-11T12:31:16;4.00;99.90
47022;DHT22;32779;52.264;6.154;2023-03-11T12:33:47;4.00;99.90
47022;DHT22;32779;52.264;6.154;2023-03-11T12:36:28;4.00;99.90
47022;DHT22;32779;52.264;6.154;2023-03-11T12:38:54;4.10;99.90
47022;DHT22;32779;52.264;6.154;2023-03-11T12:41:37;4.10;99.90
47022;DHT22;32779;52.264;6.154;2023-03-11T12:44:23;4.10;99.90
47022;DHT22;32779;52.264;6.154;2023-03-11T12:49:38;4.20;99.90
47022;DHT22;32779;52.264;6.154;2023-03-11T12:54:34;4.20;99.90
47022;DHT22;32779;52.264;6.154;2023-03-11T13:00:20;4.20;99.90
47022;DHT22;32779;52.264;6.154;2023-03-11T13:08:23;4.30;99.90
47022;DHT22;32779;52.264;6.154;2023-03-11T13:10:54;4.30;99.90
47022;DHT22;32779;52.264;6.154;2023-03-11T13:13:40;4.30;99.90
47022;DHT22;32779;52.264;6.154;2023-03-11T13:18:40;4.40;99.90
47022;DHT22;32779;52.264;6.154;2023-03-11T13:40:44;4.70;99.90
47022;DHT22;32779;52.264;6.154;2023-03-11T13:43:18;4.70;99.90
47022;DHT22;32779;52.264;6.154;2023-03-11T13:45:55;4.70;99.90
47022;DHT22;32779;52.264;6.154;2023-03-11T13:48:34;4.70;99.90
47022;DHT22;32779;52.264;6.154;2023-03-11T13:51:06;4.70;99.90
47022;DHT22;32779;52.264;6.154;2023-03-11T13:53:42;4.70;99.90
47022;DHT22;32779;52.264;6.154;2023-03-11T13:58:48;4.60;99.90
47022;DHT22;32779;52.264;6.154;2023-03-11T14:01:15;4.60;99.90
47022;DHT22;32779;52.264;6.154;2023-03-11T14:03:43;4.60;99.90
47022;DHT22;32779;52.264;6.154;2023-03-11T14:06:19;4.60;99.90
47022;DHT22;32779;52.264;6.154;2023-03-11T14:08:56;4.60;99.90
47022;DHT22;32779;52.264;6.154;2023-03-11T14:11:25;4.60;99.90
47022;DHT22;32779;52.264;6.154;2023-03-11T14:13:51;4.60;99.90
47022;DHT22;32779;52.264;6.154;2023-03-11T14:16:21;4.60;99.90
47022;DHT22;32779;52.264;6.154;2023-03-11T14:19:11;4.60;99.90
47022;DHT22;32779;52.264;6.154;2023-03-11T14:21:41;4.60;99.90
47022;DHT22;32779;52.264;6.154;2023-03-11T14:24:16;4.70;99.90
47022;DHT22;32779;52.264;6.154;2023-03-11T14:26:42;4.70;99.90
47022;DHT22;32779;52.264;6.154;2023-03-11T14:29:14;4.70;99.90
47022;DHT22;32779;52.264;6.154;2023-03-11T14:31:42;4.70;99.90
47022;DHT22;32779;52.264;6.154;2023-03-11T14:34:15;4.70;99.90
47022;DHT22;32779;52.264;6.154;2023-03-11T14:36:45;4.80;99.90
47022;DHT22;32779;52.264;6.154;2023-03-11T14:41:52;4.80;99.90
47022;DHT22;32779;52.264;6.154;2023-03-11T14:44:21;4.80;99.90
47022;DHT22;32779;52.264;6.154;2023-03-11T14:46:48;4.80;99.90
47022;DHT22;32779;52.264;6.154;2023-03-11T14:49:20;4.80;99.90
47022;DHT22;32779;52.264;6.154;2023-03-11T14:51:58;4.80;99.90
47022;DHT22;32779;52.264;6.154;2023-03-11T14:54:29;4.70;99.90
47022;DHT22;32779;52.264;6.154;2023-03-11T14:57:05;4.70;99.90
47022;DHT22;32779;52.264;6.154;2023-03-11T14:59:32;4.70;99.90
47022;DHT22;32779;52.264;6.154;2023-03-11T15:02:19;4.70;99.90
47022;DHT22;32779;52.264;6.154;2023-03-11T15:04:48;4.60;99.90
47022;DHT22;32779;52.264;6.154;2023-03-11T15:07:18;4.50;99.90
47022;DHT22;32779;52.264;6.154;2023-03-11T15:09:44;4.50;99.90
47022;DHT22;32779;52.264;6.154;2023-03-11T15:12:36;4.40;99.90
47022;DHT22;32779;52.264;6.154;2023-03-11T15:15:24;4.40;99.90
47022;DHT22;32779;52.264;6.154;2023-03-11T15:18:17;4.40;99.90
47022;DHT22;32779;52.264;6.154;2023-03-11T15:20:44;4.50;99.90
47022;DHT22;32779;52.264;6.154;2023-03-11T15:23:19;4.40;99.90
47022;DHT22;32779;52.264;6.154;2023-03-11T15:25:47;4.50;99.90
47022;DHT22;32779;52.264;6.154;2023-03-11T15:30:45;4.50;99.90
47022;DHT22;32779;52.264;6.154;2023-03-11T15:33:32;4.50;99.90
47022;DHT22;32779;52.264;6.154;2023-03-11T15:35:58;4.50;99.90
47022;DHT22;32779;52.264;6.154;2023-03-11T15:38:26;4.50;99.90
47022;DHT22;32779;52.264;6.154;2023-03-11T15:40:59;4.50;99.90
47022;DHT22;32779;52.264;6.154;2023-03-11T15:43:48;4.50;99.90
47022;DHT22;32779;52.264;6.154;2023-03-11T15:46:13;4.60;99.90
47022;DHT22;32779;52.264;6.154;2023-03-11T15:48:39;4.60;99.90
47022;DHT22;32779;52.264;6.154;2023-03-11T15:51:17;4.60;99.90
47022;DHT22;32779;52.264;6.154;2023-03-11T15:53:43;4.60;99.90
47022;DHT22;32779;52.264;6.154;2023-03-11T15:56:14;4.60;99.90
47022;DHT22;32779;52.264;6.154;2023-03-11T15:58:42;4.60;99.90
47022;DHT22;32779;52.264;6.154;2023-03-11T16:01:08;4.60;99.90
47022;DHT22;32779;52.264;6.154;2023-03-11T16:03:34;4.60;99.90
47022;DHT22;32779;52.264;6.154;2023-03-11T16:06:00;4.60;99.90
47022;DHT22;32779;52.264;6.154;2023-03-11T16:08:25;4.70;99.90
47022;DHT22;32779;52.264;6.154;2023-03-11T16:10:51;4.60;99.90
47022;DHT22;32779;52.264;6.154;2023-03-11T16:13:16;4.60;99.90
47022;DHT22;32779;52.264;6.154;2023-03-11T16:15:42;4.60;99.90
47022;DHT22;32779;52.264;6.154;2023-03-11T16:18:10;4.60;99.90
47022;DHT22;32779;52.264;6.154;2023-03-11T16:20:42;4.60;99.90
47022;DHT22;32779;52.264;6.154;2023-03-11T16:23:17;4.50;99.90
47022;DHT22;32779;52.264;6.154;2023-03-11T16:25:43;4.50;99.90
47022;DHT22;32779;52.264;6.154;2023-03-11T16:28:12;4.50;99.90
47022;DHT22;32779;52.264;6.154;2023-03-11T16:30:38;4.60;99.90
47022;DHT22;32779;52.264;6.154;2023-03-11T16:33:04;4.60;99.90
47022;DHT22;32779;52.264;6.154;2023-03-11T16:35:29;4.50;99.90
47022;DHT22;32779;52.264;6.154;2023-03-11T16:37:55;4.50;99.90
47022;DHT22;32779;52.264;6.154;2023-03-11T16:40:23;4.50;99.90
47022;DHT22;32779;52.264;6.154;2023-03-11T16:43:04;4.40;99.90
47022;DHT22;32779;52.264;6.154;2023-03-11T16:45:30;4.40;99.90
47022;DHT22;32779;52.264;6.154;2023-03-11T16:47:56;4.30;99.90
47022;DHT22;32779;52.264;6.154;2023-03-11T16:50:22;4.30;99.90
47022;DHT22;32779;52.264;6.154;2023-03-11T16:52:49;4.20;99.90
47022;DHT22;32779;52.264;6.154;2023-03-11T16:55:15;4.10;99.90
47022;DHT22;32779;52.264;6.154;2023-03-11T16:57:41;4.00;99.90
47022;DHT22;32779;52.264;6.154;2023-03-11T17:00:07;4.00;99.90
47022;DHT22;32779;52.264;6.154;2023-03-11T17:02:34;3.90;99.90
47022;DHT22;32779;52.264;6.154;2023-03-11T17:05:01;3.80;99.90
47022;DHT22;32779;52.264;6.154;2023-03-11T17:07:27;3.80;99.90
47022;DHT22;32779;52.264;6.154;2023-03-11T17:09:53;3.70;99.90
47022;DHT22;32779;52.264;6.154;2023-03-11T17:12:19;3.70;99.90
47022;DHT22;32779;52.264;6.154;2023-03-11T17:14:45;3.60;99.90
47022;DHT22;32779;52.264;6.154;2023-03-11T17:17:11;3.60;99.90
47022;DHT22;32779;52.264;6.154;2023-03-11T17:19:37;3.50;99.90
47022;DHT22;32779;52.264;6.154;2023-03-11T17:22:03;3.50;99.90
47022;DHT22;32779;52.264;6.154;2023-03-11T17:24:29;3.40;99.90
47022;DHT22;32779;52.264;6.154;2023-03-11T17:26:55;3.40;99.90
47022;DHT22;32779;52.264;6.154;2023-03-11T17:29:21;3.30;99.90
47022;DHT22;32779;52.264;6.154;2023-03-11T17:31:46;3.30;99.90
47022;DHT22;32779;52.264;6.154;2023-03-11T17:34:12;3.20;99.90